sensor_id;sensor_type;location;lat;lon;timestamp;P1;durP1;ratioP1;P2;durP2;ratioP2
23015;SDS011;11674;52.428;13.584;2023-11-19T00:03:07;7.55;;;5.35;;
23015;SDS011;11674;52.428;13.584;2023-11-19T00:08:14;6.65;;;4.63;;
23015;SDS011;11674;52.428;13.584;2023-11-19T00:13:28;6.05;;;4.45;;
23015;SDS011;11674;52.428;13.584;2023-11-19T00:18:35;7.55;;;5.30;;
23015;SDS011;11674;52.428;13.584;2023-11-19T00:23:42;8.98;;;4.85;;
23015;SDS011;11674;52.428;13.584;2023-11-19T00:28:49;7.68;;;4.72;;
23015;SDS011;11674;52.428;13.584;2023-11-19T00:33:56;7.63;;;4.93;;
23015;SDS011;11674;52.428;13.584;2023-11-19T00:39:03;7.50;;;5.22;;
23015;SDS011;11674;52.428;13.584;2023-11-19T00:44:10;6.50;;;4.88;;
23015;SDS011;11674;52.428;13.584;2023-11-19T00:49:17;8.23;;;5.05;;
23015;SDS011;11674;52.428;13.584;2023-11-19T00:54:24;6.18;;;4.65;;
23015;SDS011;11674;52.428;13.584;2023-11-19T00:59:31;6.32;;;4.35;;
23015;SDS011;11674;52.428;13.584;2023-11-19T01:04:38;7.97;;;4.65;;
23015;SDS011;11674;52.428;13.584;2023-11-19T01:09:45;10.80;;;4.82;;
23015;SDS011;11674;52.428;13.584;2023-11-19T01:14:52;10.82;;;4.70;;
23015;SDS011;11674;52.428;13.584;2023-11-19T01:19:59;7.60;;;4.85;;
23015;SDS011;11674;52.428;13.584;2023-11-19T01:25:07;7.03;;;4.38;;
23015;SDS011;11674;52.428;13.584;2023-11-19T01:30:14;6.38;;;4.32;;
23015;SDS011;11674;52.428;13.584;2023-11-19T01:35:23;7.93;;;4.60;;
23015;SDS011;11674;52.428;13.584;2023-11-19T01:40:30;7.22;;;4.25;;
23015;SDS011;11674;52.428;13.584;2023-11-19T01:45:37;9.63;;;5.38;;
23015;SDS011;11674;52.428;13.584;2023-11-19T01:50:46;5.80;;;4.30;;
23015;SDS011;11674;52.428;13.584;2023-11-19T01:55:53;6.32;;;4.50;;
23015;SDS011;11674;52.428;13.584;2023-11-19T02:01:00;6.57;;;4.70;;
23015;SDS011;11674;52.428;13.584;2023-11-19T02:06:07;6.55;;;4.47;;
23015;SDS011;11674;52.428;13.584;2023-11-19T02:11:14;6.55;;;4.18;;
23015;SDS011;11674;52.428;13.584;2023-11-19T02:16:21;7.43;;;4.85;;
23015;SDS011;11674;52.428;13.584;2023-11-19T02:21:28;8.55;;;4.60;;
23015;SDS011;11674;52.428;13.584;2023-11-19T02:26:50;8.18;;;4.10;;
23015;SDS011;11674;52.428;13.584;2023-11-19T02:32:04;6.90;;;4.80;;
23015;SDS011;11674;52.428;13.584;2023-11-19T02:37:11;6.70;;;4.45;;
23015;SDS011;11674;52.428;13.584;2023-11-19T02:42:18;6.00;;;4.47;;
23015;SDS011;11674;52.428;13.584;2023-11-19T02:47:25;7.60;;;4.50;;
23015;SDS011;11674;52.428;13.584;2023-11-19T02:52:32;10.52;;;4.50;;
23015;SDS011;11674;52.428;13.584;2023-11-19T02:57:39;8.55;;;4.88;;
23015;SDS011;11674;52.428;13.584;2023-11-19T03:02:46;37.22;;;20.00;;
23015;SDS011;11674;52.428;13.584;2023-11-19T03:07:53;5.00;;;3.80;;
23015;SDS011;11674;52.428;13.584;2023-11-19T03:13:00;7.70;;;3.85;;
23015;SDS011;11674;52.428;13.584;2023-11-19T03:18:07;4.53;;;3.30;;
23015;SDS011;11674;52.428;13.584;2023-11-19T03:23:14;7.18;;;3.80;;
23015;SDS011;11674;52.428;13.584;2023-11-19T03:28:21;4.85;;;3.53;;
23015;SDS011;11674;52.428;13.584;2023-11-19T03:33:28;6.20;;;3.72;;
23015;SDS011;11674;52.428;13.584;2023-11-19T03:38:35;6.43;;;4.05;;
23015;SDS011;11674;52.428;13.584;2023-11-19T03:43:42;5.57;;;3.97;;
23015;SDS011;11674;52.428;13.584;2023-11-19T03:48:49;8.20;;;4.20;;
23015;SDS011;11674;52.428;13.584;2023-11-19T03:53:56;7.43;;;4.00;;
23015;SDS011;11674;52.428;13.584;2023-11-19T03:59:03;6.25;;;4.07;;
23015;SDS011;11674;52.428;13.584;2023-11-19T04:04:10;7.70;;;4.35;;
23015;SDS011;11674;52.428;13.584;2023-11-19T04:09:17;7.15;;;4.90;;
23015;SDS011;11674;52.428;13.584;2023-11-19T04:14:24;7.65;;;4.88;;
23015;SDS011;11674;52.428;13.584;2023-11-19T04:19:31;7.00;;;4.75;;
23015;SDS011;11674;52.428;13.584;2023-11-19T04:24:38;8.10;;;4.25;;
23015;SDS011;11674;52.428;13.584;2023-11-19T04:29:47;8.00;;;4.90;;
23015;SDS011;11674;52.428;13.584;2023-11-19T04:34:54;9.88;;;4.63;;
23015;SDS011;11674;52.428;13.584;2023-11-19T04:40:01;8.25;;;4.80;;
23015;SDS011;11674;52.428;13.584;2023-11-19T04:45:08;7.43;;;4.82;;
23015;SDS011;11674;52.428;13.584;2023-11-19T04:50:16;7.32;;;4.95;;
23015;SDS011;11674;52.428;13.584;2023-11-19T04:55:23;6.28;;;4.40;;
23015;SDS011;11674;52.428;13.584;2023-11-19T05:00:30;8.38;;;5.25;;
23015;SDS011;11674;52.428;13.584;2023-11-19T05:05:37;8.13;;;5.15;;
23015;SDS011;11674;52.428;13.584;2023-11-19T05:10:44;7.28;;;5.47;;
23015;SDS011;11674;52.428;13.584;2023-11-19T05:15:53;8.05;;;4.78;;
23015;SDS011;11674;52.428;13.584;2023-11-19T05:21:00;7.03;;;4.30;;
23015;SDS011;11674;52.428;13.584;2023-11-19T05:26:07;7.28;;;4.93;;
23015;SDS011;11674;52.428;13.584;2023-11-19T05:31:15;8.20;;;4.70;;
23015;SDS011;11674;52.428;13.584;2023-11-19T05:36:23;6.40;;;4.88;;
23015;SDS011;11674;52.428;13.584;2023-11-19T05:41:30;6.65;;;4.72;;
23015;SDS011;11674;52.428;13.584;2023-11-19T05:46:37;7.45;;;4.97;;
23015;SDS011;11674;52.428;13.584;2023-11-19T05:51:44;6.35;;;4.55;;
23015;SDS011;11674;52.428;13.584;2023-11-19T05:56:51;6.70;;;4.25;;
23015;SDS011;11674;52.428;13.584;2023-11-19T06:01:58;6.45;;;4.90;;
23015;SDS011;11674;52.428;13.584;2023-11-19T06:07:05;7.53;;;4.60;;
23015;SDS011;11674;52.428;13.584;2023-11-19T06:12:12;5.97;;;4.25;;
23015;SDS011;11674;52.428;13.584;2023-11-19T06:17:19;6.00;;;4.15;;
23015;SDS011;11674;52.428;13.584;2023-11-19T06:22:28;4.78;;;3.65;;
23015;SDS011;11674;52.428;13.584;2023-11-19T06:27:35;8.02;;;4.40;;
23015;SDS011;11674;52.428;13.584;2023-11-19T06:32:42;6.25;;;4.50;;
23015;SDS011;11674;52.428;13.584;2023-11-19T06:37:49;8.45;;;4.38;;
23015;SDS011;11674;52.428;13.584;2023-11-19T06:42:56;4.18;;;3.75;;
23015;SDS011;11674;52.428;13.584;2023-11-19T06:48:03;5.05;;;3.55;;
23015;SDS011;11674;52.428;13.584;2023-11-19T06:53:10;6.20;;;3.95;;
23015;SDS011;11674;52.428;13.584;2023-11-19T06:58:24;4.65;;;3.35;;
23015;SDS011;11674;52.428;13.584;2023-11-19T07:03:31;5.63;;;3.90;;
23015;SDS011;11674;52.428;13.584;2023-11-19T07:08:38;4.07;;;3.22;;
23015;SDS011;11674;52.428;13.584;2023-11-19T07:13:47;8.10;;;3.80;;
23015;SDS011;11674;52.428;13.584;2023-11-19T07:18:54;5.78;;;3.70;;
23015;SDS011;11674;52.428;13.584;2023-11-19T07:24:02;6.53;;;3.88;;
23015;SDS011;11674;52.428;13.584;2023-11-19T07:29:09;6.93;;;3.40;;
23015;SDS011;11674;52.428;13.584;2023-11-19T07:34:16;3.70;;;3.20;;
23015;SDS011;11674;52.428;13.584;2023-11-19T07:39:23;4.22;;;3.40;;
23015;SDS011;11674;52.428;13.584;2023-11-19T07:44:30;5.97;;;3.40;;
23015;SDS011;11674;52.428;13.584;2023-11-19T07:49:37;4.32;;;3.40;;
23015;SDS011;11674;52.428;13.584;2023-11-19T07:54:44;5.43;;;3.33;;
23015;SDS011;11674;52.428;13.584;2023-11-19T07:59:51;4.47;;;3.50;;
23015;SDS011;11674;52.428;13.584;2023-11-19T08:04:58;5.30;;;3.47;;
23015;SDS011;11674;52.428;13.584;2023-11-19T08:10:05;7.53;;;3.65;;
23015;SDS011;11674;52.428;13.584;2023-11-19T08:15:12;3.90;;;3.15;;
23015;SDS011;11674;52.428;13.584;2023-11-19T08:20:19;4.25;;;3.50;;
23015;SDS011;11674;52.428;13.584;2023-11-19T08:25:26;3.97;;;3.40;;
23015;SDS011;11674;52.428;13.584;2023-11-19T08:30:33;5.35;;;3.65;;
23015;SDS011;11674;52.428;13.584;2023-11-19T08:35:41;4.32;;;3.47;;
23015;SDS011;11674;52.428;13.584;2023-11-19T08:40:47;5.00;;;3.70;;
23015;SDS011;11674;52.428;13.584;2023-11-19T08:45:54;6.47;;;4.00;;
23015;SDS011;11674;52.428;13.584;2023-11-19T08:51:01;5.43;;;3.80;;
23015;SDS011;11674;52.428;13.584;2023-11-19T08:56:08;6.68;;;4.22;;
23015;SDS011;11674;52.428;13.584;2023-11-19T09:01:15;4.85;;;3.50;;
23015;SDS011;11674;52.428;13.584;2023-11-19T09:06:22;5.45;;;3.47;;
23015;SDS011;11674;52.428;13.584;2023-11-19T09:11:29;4.75;;;3.47;;
23015;SDS011;11674;52.428;13.584;2023-11-19T09:16:36;4.40;;;3.63;;
23015;SDS011;11674;52.428;13.584;2023-11-19T09:21:43;6.75;;;3.60;;
23015;SDS011;11674;52.428;13.584;2023-11-19T09:26:50;6.57;;;3.42;;
23015;SDS011;11674;52.428;13.584;2023-11-19T09:31:57;4.40;;;3.40;;
23015;SDS011;11674;52.428;13.584;2023-11-19T09:37:04;5.72;;;3.60;;
23015;SDS011;11674;52.428;13.584;2023-11-19T09:42:12;5.28;;;3.22;;
23015;SDS011;11674;52.428;13.584;2023-11-19T09:47:19;6.07;;;3.17;;
23015;SDS011;11674;52.428;13.584;2023-11-19T09:52:26;4.72;;;2.85;;
23015;SDS011;11674;52.428;13.584;2023-11-19T09:57:33;3.65;;;2.40;;
23015;SDS011;11674;52.428;13.584;2023-11-19T10:02:41;4.93;;;2.88;;
23015;SDS011;11674;52.428;13.584;2023-11-19T10:07:50;8.32;;;2.70;;
23015;SDS011;11674;52.428;13.584;2023-11-19T10:12:57;5.82;;;3.00;;
23015;SDS011;11674;52.428;13.584;2023-11-19T10:18:04;3.00;;;2.08;;
23015;SDS011;11674;52.428;13.584;2023-11-19T10:23:11;5.72;;;1.98;;
23015;SDS011;11674;52.428;13.584;2023-11-19T10:28:18;4.15;;;1.92;;
23015;SDS011;11674;52.428;13.584;2023-11-19T10:33:27;9.52;;;2.25;;
23015;SDS011;11674;52.428;13.584;2023-11-19T10:38:36;5.20;;;2.00;;
23015;SDS011;11674;52.428;13.584;2023-11-19T10:43:44;6.00;;;2.17;;
23015;SDS011;11674;52.428;13.584;2023-11-19T10:48:51;6.72;;;2.45;;
23015;SDS011;11674;52.428;13.584;2023-11-19T10:54:05;8.85;;;2.00;;
23015;SDS011;11674;52.428;13.584;2023-11-19T10:59:12;7.53;;;2.30;;
23015;SDS011;11674;52.428;13.584;2023-11-19T11:04:23;7.10;;;1.60;;
23015;SDS011;11674;52.428;13.584;2023-11-19T11:09:30;9.82;;;1.67;;
23015;SDS011;11674;52.428;13.584;2023-11-19T11:14:38;5.55;;;2.10;;
23015;SDS011;11674;52.428;13.584;2023-11-19T11:19:48;6.65;;;2.40;;
23015;SDS011;11674;52.428;13.584;2023-11-19T11:31:00;19.70;;;2.72;;
23015;SDS011;11674;52.428;13.584;2023-11-19T11:36:21;10.68;;;1.90;;
23015;SDS011;11674;52.428;13.584;2023-11-19T11:41:29;8.15;;;2.17;;
23015;SDS011;11674;52.428;13.584;2023-11-19T11:57:08;14.67;;;2.53;;
23015;SDS011;11674;52.428;13.584;2023-11-19T12:02:21;16.63;;;2.85;;
23015;SDS011;11674;52.428;13.584;2023-11-19T12:07:28;12.23;;;2.63;;
23015;SDS011;11674;52.428;13.584;2023-11-19T12:12:35;9.88;;;3.40;;
23015;SDS011;11674;52.428;13.584;2023-11-19T12:17:43;12.13;;;3.03;;
23015;SDS011;11674;52.428;13.584;2023-11-19T12:22:53;14.17;;;3.13;;
23015;SDS011;11674;52.428;13.584;2023-11-19T12:28:00;11.20;;;3.00;;
23015;SDS011;11674;52.428;13.584;2023-11-19T12:33:08;18.75;;;3.70;;
23015;SDS011;11674;52.428;13.584;2023-11-19T12:38:22;12.40;;;2.85;;
23015;SDS011;11674;52.428;13.584;2023-11-19T12:43:30;18.48;;;4.65;;
23015;SDS011;11674;52.428;13.584;2023-11-19T12:48:37;18.77;;;3.60;;
23015;SDS011;11674;52.428;13.584;2023-11-19T12:53:48;16.98;;;3.42;;
23015;SDS011;11674;52.428;13.584;2023-11-19T12:58:56;15.43;;;2.97;;
23015;SDS011;11674;52.428;13.584;2023-11-19T13:04:16;25.60;;;5.97;;
23015;SDS011;11674;52.428;13.584;2023-11-19T13:09:26;19.38;;;3.60;;
23015;SDS011;11674;52.428;13.584;2023-11-19T13:14:36;15.93;;;3.75;;
23015;SDS011;11674;52.428;13.584;2023-11-19T13:19:43;15.85;;;4.25;;
23015;SDS011;11674;52.428;13.584;2023-11-19T13:24:53;24.15;;;3.85;;
23015;SDS011;11674;52.428;13.584;2023-11-19T13:30:04;24.70;;;5.50;;
23015;SDS011;11674;52.428;13.584;2023-11-19T13:35:12;23.37;;;4.00;;
23015;SDS011;11674;52.428;13.584;2023-11-19T13:40:19;17.63;;;4.53;;
23015;SDS011;11674;52.428;13.584;2023-11-19T13:45:26;14.00;;;3.65;;
23015;SDS011;11674;52.428;13.584;2023-11-19T13:50:33;22.50;;;3.67;;
23015;SDS011;11674;52.428;13.584;2023-11-19T13:55:41;19.38;;;4.25;;
23015;SDS011;11674;52.428;13.584;2023-11-19T14:00:48;18.95;;;4.57;;
23015;SDS011;11674;52.428;13.584;2023-11-19T14:05:55;23.52;;;3.90;;
23015;SDS011;11674;52.428;13.584;2023-11-19T14:11:02;22.02;;;4.38;;
23015;SDS011;11674;52.428;13.584;2023-11-19T14:16:09;23.00;;;3.80;;
23015;SDS011;11674;52.428;13.584;2023-11-19T14:21:16;20.88;;;3.83;;
23015;SDS011;11674;52.428;13.584;2023-11-19T14:26:23;27.98;;;3.75;;
23015;SDS011;11674;52.428;13.584;2023-11-19T14:31:30;24.40;;;4.28;;
23015;SDS011;11674;52.428;13.584;2023-11-19T14:36:37;21.58;;;4.15;;
23015;SDS011;11674;52.428;13.584;2023-11-19T14:41:44;18.70;;;3.90;;
23015;SDS011;11674;52.428;13.584;2023-11-19T14:46:51;25.10;;;4.05;;
23015;SDS011;11674;52.428;13.584;2023-11-19T14:51:58;21.88;;;4.30;;
23015;SDS011;11674;52.428;13.584;2023-11-19T14:57:05;23.23;;;3.75;;
23015;SDS011;11674;52.428;13.584;2023-11-19T15:02:12;26.90;;;4.55;;
23015;SDS011;11674;52.428;13.584;2023-11-19T15:07:19;22.52;;;4.47;;
23015;SDS011;11674;52.428;13.584;2023-11-19T15:12:27;21.83;;;3.90;;
23015;SDS011;11674;52.428;13.584;2023-11-19T15:17:34;25.38;;;3.83;;
23015;SDS011;11674;52.428;13.584;2023-11-19T15:22:41;25.00;;;4.18;;
23015;SDS011;11674;52.428;13.584;2023-11-19T15:27:48;21.42;;;3.65;;
23015;SDS011;11674;52.428;13.584;2023-11-19T15:32:55;19.80;;;3.55;;
23015;SDS011;11674;52.428;13.584;2023-11-19T15:38:02;16.95;;;3.92;;
23015;SDS011;11674;52.428;13.584;2023-11-19T15:43:09;17.88;;;3.55;;
23015;SDS011;11674;52.428;13.584;2023-11-19T15:48:16;26.13;;;4.22;;
23015;SDS011;11674;52.428;13.584;2023-11-19T15:53:25;19.60;;;4.40;;
23015;SDS011;11674;52.428;13.584;2023-11-19T15:58:32;21.63;;;4.05;;
23015;SDS011;11674;52.428;13.584;2023-11-19T16:03:39;19.20;;;3.88;;
23015;SDS011;11674;52.428;13.584;2023-11-19T16:08:46;29.60;;;4.28;;
23015;SDS011;11674;52.428;13.584;2023-11-19T16:13:53;19.70;;;3.92;;
23015;SDS011;11674;52.428;13.584;2023-11-19T16:19:00;34.10;;;8.70;;
23015;SDS011;11674;52.428;13.584;2023-11-19T16:24:07;22.58;;;4.18;;
23015;SDS011;11674;52.428;13.584;2023-11-19T16:29:14;19.88;;;3.72;;
23015;SDS011;11674;52.428;13.584;2023-11-19T16:34:21;23.35;;;4.68;;
23015;SDS011;11674;52.428;13.584;2023-11-19T16:39:28;19.25;;;4.03;;
23015;SDS011;11674;52.428;13.584;2023-11-19T16:44:35;22.08;;;4.63;;
23015;SDS011;11674;52.428;13.584;2023-11-19T16:49:42;19.60;;;3.88;;
23015;SDS011;11674;52.428;13.584;2023-11-19T16:54:49;22.92;;;3.92;;
23015;SDS011;11674;52.428;13.584;2023-11-19T16:59:56;25.98;;;5.38;;
23015;SDS011;11674;52.428;13.584;2023-11-19T17:05:03;20.10;;;4.28;;
23015;SDS011;11674;52.428;13.584;2023-11-19T17:10:10;21.38;;;4.45;;
23015;SDS011;11674;52.428;13.584;2023-11-19T17:15:17;15.18;;;4.28;;
23015;SDS011;11674;52.428;13.584;2023-11-19T17:20:24;19.65;;;4.68;;
23015;SDS011;11674;52.428;13.584;2023-11-19T17:25:31;20.10;;;4.82;;
23015;SDS011;11674;52.428;13.584;2023-11-19T17:30:38;27.38;;;5.30;;
23015;SDS011;11674;52.428;13.584;2023-11-19T17:35:55;21.27;;;4.57;;
23015;SDS011;11674;52.428;13.584;2023-11-19T17:41:12;25.00;;;5.00;;
23015;SDS011;11674;52.428;13.584;2023-11-19T17:46:19;23.70;;;5.45;;
23015;SDS011;11674;52.428;13.584;2023-11-19T17:51:26;34.08;;;5.80;;
23015;SDS011;11674;52.428;13.584;2023-11-19T17:56:33;26.20;;;6.75;;
23015;SDS011;11674;52.428;13.584;2023-11-19T18:01:40;24.90;;;6.18;;
23015;SDS011;11674;52.428;13.584;2023-11-19T18:06:47;23.42;;;5.30;;
23015;SDS011;11674;52.428;13.584;2023-11-19T18:11:54;25.17;;;5.45;;
23015;SDS011;11674;52.428;13.584;2023-11-19T18:17:01;29.33;;;6.03;;
23015;SDS011;11674;52.428;13.584;2023-11-19T18:22:08;23.10;;;4.78;;
23015;SDS011;11674;52.428;13.584;2023-11-19T18:27:15;28.48;;;5.40;;
23015;SDS011;11674;52.428;13.584;2023-11-19T18:32:22;23.58;;;4.60;;
23015;SDS011;11674;52.428;13.584;2023-11-19T18:37:29;18.63;;;4.65;;
23015;SDS011;11674;52.428;13.584;2023-11-19T18:42:36;23.45;;;6.22;;
23015;SDS011;11674;52.428;13.584;2023-11-19T18:47:43;20.77;;;5.00;;
23015;SDS011;11674;52.428;13.584;2023-11-19T18:52:50;17.80;;;4.82;;
23015;SDS011;11674;52.428;13.584;2023-11-19T18:57:57;21.40;;;5.05;;
23015;SDS011;11674;52.428;13.584;2023-11-19T19:03:04;26.92;;;6.00;;
23015;SDS011;11674;52.428;13.584;2023-11-19T19:08:11;15.93;;;5.32;;
23015;SDS011;11674;52.428;13.584;2023-11-19T19:13:18;31.95;;;5.95;;
23015;SDS011;11674;52.428;13.584;2023-11-19T19:18:28;24.65;;;5.28;;
23015;SDS011;11674;52.428;13.584;2023-11-19T19:23:35;26.17;;;5.80;;
23015;SDS011;11674;52.428;13.584;2023-11-19T19:28:42;21.65;;;6.30;;
23015;SDS011;11674;52.428;13.584;2023-11-19T19:33:49;25.80;;;6.55;;
23015;SDS011;11674;52.428;13.584;2023-11-19T19:38:57;29.17;;;6.18;;
23015;SDS011;11674;52.428;13.584;2023-11-19T19:44:04;22.63;;;5.57;;
23015;SDS011;11674;52.428;13.584;2023-11-19T19:49:11;23.05;;;5.38;;
23015;SDS011;11674;52.428;13.584;2023-11-19T19:54:18;16.88;;;4.57;;
23015;SDS011;11674;52.428;13.584;2023-11-19T19:59:25;18.25;;;4.35;;
23015;SDS011;11674;52.428;13.584;2023-11-19T20:04:32;15.48;;;3.88;;
23015;SDS011;11674;52.428;13.584;2023-11-19T20:09:39;26.83;;;4.55;;
23015;SDS011;11674;52.428;13.584;2023-11-19T20:14:46;14.52;;;3.45;;
23015;SDS011;11674;52.428;13.584;2023-11-19T20:19:53;18.73;;;3.88;;
23015;SDS011;11674;52.428;13.584;2023-11-19T20:25:00;14.85;;;3.05;;
23015;SDS011;11674;52.428;13.584;2023-11-19T20:30:07;15.07;;;3.42;;
23015;SDS011;11674;52.428;13.584;2023-11-19T20:35:14;22.00;;;4.22;;
23015;SDS011;11674;52.428;13.584;2023-11-19T20:40:21;19.30;;;3.38;;
23015;SDS011;11674;52.428;13.584;2023-11-19T20:45:28;16.48;;;3.00;;
23015;SDS011;11674;52.428;13.584;2023-11-19T20:50:35;13.60;;;3.13;;
23015;SDS011;11674;52.428;13.584;2023-11-19T20:55:42;16.42;;;3.67;;
23015;SDS011;11674;52.428;13.584;2023-11-19T21:00:49;14.68;;;3.13;;
23015;SDS011;11674;52.428;13.584;2023-11-19T21:05:56;16.13;;;3.50;;
23015;SDS011;11674;52.428;13.584;2023-11-19T21:11:03;19.10;;;3.45;;
23015;SDS011;11674;52.428;13.584;2023-11-19T21:16:14;12.00;;;2.63;;
23015;SDS011;11674;52.428;13.584;2023-11-19T21:21:21;16.95;;;3.25;;
23015;SDS011;11674;52.428;13.584;2023-11-19T21:26:28;18.48;;;3.92;;
23015;SDS011;11674;52.428;13.584;2023-11-19T21:31:35;22.67;;;3.25;;
23015;SDS011;11674;52.428;13.584;2023-11-19T21:36:42;17.73;;;3.88;;
23015;SDS011;11674;52.428;13.584;2023-11-19T21:41:49;17.60;;;3.15;;
23015;SDS011;11674;52.428;13.584;2023-11-19T21:46:56;16.98;;;3.15;;
23015;SDS011;11674;52.428;13.584;2023-11-19T21:52:03;16.55;;;3.10;;
23015;SDS011;11674;52.428;13.584;2023-11-19T21:57:10;18.38;;;2.88;;
23015;SDS011;11674;52.428;13.584;2023-11-19T22:02:18;13.68;;;2.92;;
23015;SDS011;11674;52.428;13.584;2023-11-19T22:07:24;17.00;;;3.13;;
23015;SDS011;11674;52.428;13.584;2023-11-19T22:12:31;13.95;;;3.58;;
23015;SDS011;11674;52.428;13.584;2023-11-19T22:17:38;16.38;;;3.25;;
23015;SDS011;11674;52.428;13.584;2023-11-19T22:22:55;13.38;;;2.85;;
23015;SDS011;11674;52.428;13.584;2023-11-19T22:28:02;16.77;;;3.13;;
23015;SDS011;11674;52.428;13.584;2023-11-19T22:33:09;21.67;;;3.75;;
23015;SDS011;11674;52.428;13.584;2023-11-19T22:38:16;14.88;;;3.42;;
23015;SDS011;11674;52.428;13.584;2023-11-19T22:43:26;11.68;;;2.95;;
23015;SDS011;11674;52.428;13.584;2023-11-19T22:48:33;13.50;;;3.03;;
23015;SDS011;11674;52.428;13.584;2023-11-19T22:53:44;18.85;;;3.58;;
23015;SDS011;11674;52.428;13.584;2023-11-19T22:58:52;12.50;;;2.75;;
23015;SDS011;11674;52.428;13.584;2023-11-19T23:03:58;15.93;;;3.42;;
23015;SDS011;11674;52.428;13.584;2023-11-19T23:09:05;12.77;;;2.60;;
23015;SDS011;11674;52.428;13.584;2023-11-19T23:14:12;10.93;;;3.28;;
23015;SDS011;11674;52.428;13.584;2023-11-19T23:19:19;12.23;;;3.00;;
23015;SDS011;11674;52.428;13.584;2023-11-19T23:24:26;13.48;;;3.78;;
23015;SDS011;11674;52.428;13.584;2023-11-19T23:29:33;19.00;;;3.58;;
23015;SDS011;11674;52.428;13.584;2023-11-19T23:34:40;16.52;;;3.38;;
23015;SDS011;11674;52.428;13.584;2023-11-19T23:39:47;15.82;;;2.97;;
23015;SDS011;11674;52.428;13.584;2023-11-19T23:44:54;14.75;;;3.05;;
23015;SDS011;11674;52.428;13.584;2023-11-19T23:50:02;15.25;;;3.10;;
23015;SDS011;11674;52.428;13.584;2023-11-19T23:55:08;18.80;;;3.25;;
